Capitol Logistics 7484

Operating for MZN



KAFW
Fort Worth Alliance Airport
Fort Worth, Texas
KJFK
John F Kennedy International Airport
New York, New York

Activity Log

Date Flight Route Aircraft Duration
No Flights Yet

Route Details

Aircraft Information
Primary: Boeing 767-300BDSF
Backup: Boeing 757-200SF
Route Data
Distance: 1218nm
Duration: 2h 52m
Recm'd Route: KUSSO7 BSKAT LIT Q66 METWO Q66 ALEAN Q40 YICUT J22 PSK GVE J150 OTT SIE CAMRN4
Origin Wx: KAFW 180153Z 35010KT 10SM BKN160 OVC250 12/04 A3010 RMK AO2 SLP196 T01220044 $
Dest. Wx: KJFK 180151Z 03008KT 10SM FEW038 OVC050 11/02 A2983 RMK AO2 SLP101 T01060017
Notes: